Terminal Aerodrome Forecast
Issued by NWS

Current Version | Previous Version | Graphics & Text | Print | Product List | Glossary On
Versions: 1 2 3 4 5 6 7 8 9 10 11 12 13 14 15 16 17 18 19
000
FTUS41 KPBZ 311100
TAFMGW
TAF
KMGW 311125Z 3112/0112 21006KT P6SM BKN080
     FM311400 22013G22KT P6SM -SHRA OVC050
     FM311600 26012G22KT 4SM -SHRA OVC030
     FM312100 32013G25KT P6SM BKN025
     FM010200 31012G20KT P6SM BKN035=

USA.gov is the U.S. government's official web portal to all federal, state and local government web resources and services.